createdAt,value
2024-03-02T00:01:46.752Z,41.20
2024-03-02T00:04:14.637Z,39.13
2024-03-02T00:06:42.598Z,35.03
2024-03-02T00:09:14.044Z,42.63
2024-03-02T00:11:42.201Z,41.63
2024-03-02T00:14:10.248Z,38.00
2024-03-02T00:16:38.406Z,39.63
2024-03-02T00:19:07.977Z,36.60
2024-03-02T00:21:36.185Z,40.67
2024-03-02T00:24:16.292Z,38.23
2024-03-02T00:26:46.901Z,42.30
2024-03-02T00:29:18.010Z,44.27
2024-03-02T00:31:45.887Z,41.73
2024-03-02T00:34:17.545Z,44.37
2024-03-02T00:36:46.509Z,46.67
2024-03-02T00:39:16.285Z,44.50
2024-03-02T00:41:44.246Z,42.10
2024-03-02T00:44:14.482Z,41.37
2024-03-02T00:46:43.801Z,43.53
2024-03-02T00:49:24.344Z,42.23
2024-03-02T00:51:55.232Z,44.83
2024-03-02T00:54:28.096Z,48.33
2024-03-02T00:56:57.671Z,43.07
2024-03-02T00:59:25.790Z,47.37
2024-03-02T01:01:54.011Z,51.30
2024-03-02T01:04:21.972Z,47.27
2024-03-02T01:06:50.150Z,47.47
2024-03-02T01:09:19.534Z,48.63
2024-03-02T01:11:47.805Z,47.77
2024-03-02T01:14:15.806Z,50.03
2024-03-02T01:16:43.766Z,51.53
2024-03-02T01:19:11.732Z,52.23
2024-03-02T01:21:39.754Z,54.17
2024-03-02T01:24:07.742Z,52.97
2024-03-02T01:26:35.735Z,51.70
2024-03-02T01:29:04.046Z,46.30
2024-03-02T01:31:31.999Z,49.33
2024-03-02T01:33:59.931Z,46.97
2024-03-02T01:36:27.904Z,51.03
2024-03-02T01:38:55.826Z,52.20
2024-03-02T01:41:23.781Z,49.33
2024-03-02T01:43:51.672Z,46.67
2024-03-02T01:46:19.550Z,47.50
2024-03-02T01:48:47.563Z,46.67
2024-03-02T01:51:16.100Z,51.53
2024-03-02T01:53:44.053Z,51.63
2024-03-02T01:56:12.450Z,51.60
2024-03-02T01:58:40.481Z,50.63
2024-03-02T02:01:08.671Z,54.03
2024-03-02T02:03:36.769Z,52.87
2024-03-02T02:06:04.973Z,50.33
2024-03-02T02:08:33.191Z,46.83
2024-03-02T02:11:01.086Z,52.10
2024-03-02T02:13:29.031Z,52.60
2024-03-02T02:15:57.173Z,55.00
2024-03-02T02:18:25.972Z,44.27
2024-03-02T02:20:53.904Z,48.17
2024-03-02T02:23:21.800Z,45.10
2024-03-02T02:25:49.818Z,48.10
2024-03-02T02:28:18.002Z,49.90
2024-03-02T02:30:45.895Z,49.83
2024-03-02T02:33:14.190Z,50.53
2024-03-02T02:35:42.231Z,44.17
2024-03-02T02:38:10.174Z,46.03
2024-03-02T02:40:38.347Z,47.90
2024-03-02T02:43:06.252Z,50.33
2024-03-02T02:45:34.171Z,48.93
2024-03-02T02:48:04.133Z,45.83
2024-03-02T02:50:32.151Z,45.20
2024-03-02T02:53:00.113Z,46.67
2024-03-02T02:55:28.056Z,47.47
2024-03-02T02:57:55.732Z,45.43
2024-03-02T03:00:24.352Z,45.40
2024-03-02T03:02:52.386Z,44.80
2024-03-02T03:05:20.829Z,48.57
2024-03-02T03:07:51.523Z,47.00
2024-03-02T03:10:19.977Z,45.70
2024-03-02T03:12:48.104Z,41.33
2024-03-02T03:15:17.812Z,45.67
2024-03-02T03:17:47.588Z,42.87
2024-03-02T03:20:16.941Z,49.67
2024-03-02T03:22:44.911Z,47.20
2024-03-02T03:25:12.495Z,44.80
2024-03-02T03:27:40.122Z,43.87
2024-03-02T03:30:08.548Z,45.03
2024-03-02T03:32:36.487Z,48.47
2024-03-02T03:35:05.417Z,45.30
2024-03-02T03:37:35.086Z,47.60
2024-03-02T03:40:11.732Z,51.90
2024-03-02T03:42:40.671Z,56.20
2024-03-02T03:45:09.076Z,51.00
2024-03-02T03:47:37.487Z,51.13
2024-03-02T03:50:08.541Z,46.87
2024-03-02T03:52:36.918Z,45.87
2024-03-02T03:55:06.872Z,48.30
2024-03-02T03:57:35.191Z,45.47
2024-03-02T04:00:03.596Z,49.03
2024-03-02T04:02:31.541Z,46.57
2024-03-02T04:04:59.513Z,41.23
2024-03-02T04:07:27.564Z,41.67
2024-03-02T04:09:55.551Z,37.97
2024-03-02T04:12:23.735Z,40.90
2024-03-02T04:14:51.816Z,46.27
2024-03-02T04:17:19.732Z,43.13
2024-03-02T04:19:47.670Z,44.60
2024-03-02T04:22:21.407Z,42.47
2024-03-02T04:24:53.625Z,42.93
2024-03-02T04:27:21.623Z,42.87
2024-03-02T04:29:49.662Z,42.30
2024-03-02T04:32:17.761Z,40.60
2024-03-02T04:34:45.746Z,42.37
2024-03-02T04:37:14.092Z,40.43
2024-03-02T04:39:42.042Z,40.73
2024-03-02T04:42:10.067Z,39.90
2024-03-02T04:44:39.465Z,43.03
2024-03-02T04:47:07.651Z,43.27
2024-03-02T04:49:35.798Z,46.17
2024-03-02T04:52:03.915Z,42.27
2024-03-02T04:54:31.695Z,43.77
2024-03-02T04:56:59.725Z,47.23
2024-03-02T04:59:27.760Z,42.40
2024-03-02T05:01:55.401Z,44.30
2024-03-02T05:04:23.021Z,43.10
2024-03-02T05:06:54.343Z,39.17
2024-03-02T05:09:22.138Z,43.07
2024-03-02T05:12:08.470Z,39.53
2024-03-02T05:14:36.002Z,42.10
2024-03-02T05:17:03.656Z,40.30
2024-03-02T05:19:31.619Z,46.73
2024-03-02T05:21:59.611Z,42.67
2024-03-02T05:24:30.354Z,36.33
2024-03-02T05:26:58.438Z,39.27
2024-03-02T05:29:26.489Z,42.13
2024-03-02T05:31:54.413Z,40.33
2024-03-02T05:34:22.040Z,41.30
2024-03-02T05:36:50.211Z,62.00
2024-03-02T05:39:18.244Z,51.57
2024-03-02T05:41:45.802Z,46.03
2024-03-02T05:44:13.837Z,44.40
2024-03-02T05:46:41.624Z,42.73
2024-03-02T05:49:09.420Z,43.87
2024-03-02T05:51:37.342Z,42.83
2024-03-02T05:54:05.172Z,41.73
2024-03-02T05:56:33.351Z,38.27
2024-03-02T05:59:14.329Z,40.27
2024-03-02T06:01:46.181Z,40.77
2024-03-02T06:04:14.860Z,38.53
2024-03-02T06:06:42.647Z,38.40
2024-03-02T06:09:13.428Z,40.50
2024-03-02T06:11:42.234Z,38.33
2024-03-02T06:14:10.730Z,41.27
2024-03-02T06:16:38.273Z,39.43
2024-03-02T06:19:05.917Z,41.20
2024-03-02T06:21:33.513Z,41.53
2024-03-02T06:24:02.487Z,39.83
2024-03-02T06:26:31.069Z,41.93
2024-03-02T06:28:58.853Z,41.90
2024-03-02T06:31:26.699Z,43.20
2024-03-02T06:33:54.309Z,40.20
2024-03-02T06:36:21.899Z,42.63
2024-03-02T06:38:49.538Z,38.53
2024-03-02T06:41:17.086Z,37.07
2024-03-02T06:43:44.706Z,41.43
2024-03-02T06:46:15.930Z,37.00
2024-03-02T06:48:43.861Z,40.07
2024-03-02T06:51:12.263Z,40.57
2024-03-02T06:53:39.817Z,42.17
2024-03-02T06:56:09.530Z,38.70
2024-03-02T06:58:37.086Z,46.27
2024-03-02T07:01:04.799Z,53.60
2024-03-02T07:03:32.428Z,44.87
2024-03-02T07:05:59.991Z,40.30
2024-03-02T07:08:27.622Z,38.57
2024-03-02T07:10:55.594Z,41.33
2024-03-02T07:13:23.137Z,42.73
2024-03-02T07:16:09.375Z,45.10
2024-03-02T07:18:42.356Z,46.20
2024-03-02T07:21:10.030Z,38.33
2024-03-02T07:23:37.749Z,41.23
2024-03-02T07:28:35.897Z,41.30
2024-03-02T07:31:06.233Z,39.03
2024-03-02T07:33:34.711Z,37.33
2024-03-02T07:36:05.101Z,41.63
2024-03-02T07:38:35.573Z,48.57
2024-03-02T07:41:03.963Z,45.40
2024-03-02T07:43:34.350Z,55.10
2024-03-02T07:46:02.226Z,50.73
2024-03-02T07:48:29.943Z,43.37
2024-03-02T07:50:57.488Z,47.33
2024-03-02T07:53:25.032Z,45.80
2024-03-02T07:55:52.695Z,40.10
2024-03-02T07:58:20.850Z,45.63
2024-03-02T08:00:49.382Z,45.37
2024-03-02T08:03:17.839Z,40.83
2024-03-02T08:05:46.171Z,43.77
2024-03-02T08:08:13.873Z,36.83
2024-03-02T08:10:41.404Z,36.03
2024-03-02T08:13:08.907Z,37.90
2024-03-02T08:15:36.489Z,45.23
2024-03-02T08:18:04.292Z,39.03
2024-03-02T08:20:32.887Z,32.87
2024-03-02T08:23:00.835Z,32.80
2024-03-02T08:25:28.463Z,39.17
2024-03-02T08:27:56.403Z,37.00
2024-03-02T08:30:24.308Z,35.23
2024-03-02T08:32:52.277Z,35.07
2024-03-02T08:35:20.175Z,38.10
2024-03-02T08:37:48.081Z,37.93
2024-03-02T08:40:18.754Z,39.37
2024-03-02T08:42:47.596Z,35.80
2024-03-02T08:45:15.906Z,36.73
2024-03-02T08:47:44.718Z,44.80
2024-03-02T08:50:12.712Z,44.03
2024-03-02T08:52:40.672Z,34.17
2024-03-02T08:55:09.372Z,33.43
2024-03-02T08:57:37.326Z,36.73
2024-03-02T09:00:06.610Z,33.87
2024-03-02T09:02:34.488Z,34.80
2024-03-02T09:05:02.415Z,34.40
2024-03-02T09:07:30.363Z,32.53
2024-03-02T09:09:58.421Z,35.07
2024-03-02T09:12:26.365Z,27.97
2024-03-02T09:14:54.251Z,30.30
2024-03-02T09:17:22.176Z,31.43
2024-03-02T09:19:50.198Z,34.53
2024-03-02T09:22:18.040Z,35.77
2024-03-02T09:24:45.966Z,31.90
2024-03-02T09:27:13.937Z,32.17
2024-03-02T09:29:41.903Z,31.93
2024-03-02T09:32:13.320Z,27.27
2024-03-02T09:34:41.887Z,28.53
2024-03-02T09:37:09.969Z,26.30
2024-03-02T09:39:37.936Z,25.97
2024-03-02T09:42:06.802Z,29.43
2024-03-02T09:44:35.364Z,26.97
2024-03-02T09:47:03.443Z,25.77
2024-03-02T09:49:31.466Z,26.60
2024-03-02T09:51:59.638Z,26.73
2024-03-02T09:54:27.691Z,30.13
2024-03-02T09:56:55.778Z,27.77
2024-03-02T09:59:23.782Z,27.53
2024-03-02T10:02:01.043Z,26.83
2024-03-02T10:04:30.597Z,26.47
2024-03-02T10:07:18.822Z,24.50
2024-03-02T10:09:48.364Z,21.73
2024-03-02T10:12:17.999Z,27.80
2024-03-02T10:14:46.583Z,28.03
2024-03-02T10:17:16.906Z,27.10
2024-03-02T10:19:44.849Z,24.53
2024-03-02T10:22:12.869Z,26.60
2024-03-02T10:24:49.045Z,26.77
2024-03-02T10:27:36.599Z,26.00
2024-03-02T10:30:07.291Z,21.83
2024-03-02T10:32:35.374Z,24.63
2024-03-02T10:35:04.867Z,22.83
2024-03-02T10:37:33.820Z,20.70
2024-03-02T10:40:07.003Z,21.27
2024-03-02T10:42:34.962Z,20.10
2024-03-02T10:45:02.967Z,22.37
2024-03-02T10:47:32.379Z,21.67
2024-03-02T10:50:01.637Z,20.43
2024-03-02T10:52:30.208Z,20.17
2024-03-02T10:54:58.382Z,19.73
2024-03-02T10:57:29.169Z,20.37
2024-03-02T11:00:04.360Z,19.97
2024-03-02T11:02:33.200Z,20.13
2024-03-02T11:05:02.442Z,19.57
2024-03-02T11:07:30.807Z,20.27
2024-03-02T11:10:10.201Z,21.13
2024-03-02T11:12:41.009Z,21.73
2024-03-02T11:15:13.203Z,21.53
2024-03-02T11:17:42.572Z,19.77
2024-03-02T11:20:10.896Z,18.07
2024-03-02T11:22:39.227Z,20.17
2024-03-02T11:25:11.518Z,19.40
2024-03-02T11:27:51.462Z,21.23
2024-03-02T11:30:35.442Z,19.53
2024-03-02T11:33:12.604Z,20.63
2024-03-02T11:35:49.995Z,20.40
2024-03-02T11:38:19.212Z,21.53
2024-03-02T11:40:47.188Z,25.07
2024-03-02T11:43:15.099Z,28.10
2024-03-02T11:45:46.011Z,24.13
2024-03-02T11:48:16.984Z,20.40
2024-03-02T11:50:50.799Z,23.63
2024-03-02T11:53:20.745Z,20.53
2024-03-02T11:55:48.743Z,20.77
2024-03-02T11:58:25.425Z,27.53
2024-03-02T12:00:57.864Z,21.77
2024-03-02T12:03:27.206Z,20.33
2024-03-02T12:05:56.081Z,19.00
2024-03-02T12:08:24.972Z,20.97
2024-03-02T12:11:02.550Z,17.50
2024-03-02T12:13:31.399Z,18.80
2024-03-02T12:15:59.760Z,15.77
2024-03-02T12:18:28.193Z,21.57
2024-03-02T12:21:00.077Z,26.27
2024-03-02T12:23:28.447Z,29.23
2024-03-02T12:25:56.529Z,18.93
2024-03-02T12:28:24.607Z,16.03
2024-03-02T12:30:53.074Z,16.53
2024-03-02T12:33:22.159Z,15.63
2024-03-02T12:35:51.413Z,15.87
2024-03-02T12:38:19.505Z,13.50
2024-03-02T12:40:50.991Z,15.17
2024-03-02T12:43:19.308Z,17.40
2024-03-02T12:45:47.519Z,15.77
2024-03-02T12:48:16.128Z,15.13
2024-03-02T12:50:45.686Z,14.73
2024-03-02T12:53:17.642Z,20.60
2024-03-02T12:55:45.881Z,16.00
2024-03-02T12:58:22.705Z,20.77
2024-03-02T13:00:51.089Z,17.07
2024-03-02T13:03:24.092Z,14.90
2024-03-02T13:05:52.288Z,19.07
2024-03-02T13:08:20.220Z,19.47
2024-03-02T13:10:48.255Z,18.37
2024-03-02T13:13:16.363Z,19.13
2024-03-02T13:15:44.540Z,19.70
2024-03-02T13:18:13.237Z,17.77
2024-03-02T13:20:41.318Z,16.10
2024-03-02T13:23:09.188Z,16.37
2024-03-02T13:25:37.068Z,14.73
2024-03-02T13:28:05.252Z,17.13
2024-03-02T13:30:33.968Z,18.10
2024-03-02T13:33:02.236Z,14.40
2024-03-02T13:35:30.209Z,17.07
2024-03-02T13:37:58.469Z,12.80
2024-03-02T13:40:26.376Z,11.20
2024-03-02T13:42:55.393Z,13.77
2024-03-02T13:45:23.480Z,15.93
2024-03-02T13:47:51.428Z,15.77
2024-03-02T13:50:19.369Z,13.83
2024-03-02T13:52:47.272Z,14.40
2024-03-02T13:55:15.402Z,14.80
2024-03-02T13:57:43.379Z,13.87
2024-03-02T14:00:13.482Z,14.27
2024-03-02T14:02:41.749Z,12.77
2024-03-02T14:05:13.168Z,12.93
2024-03-02T14:07:41.657Z,11.00
2024-03-02T14:10:10.323Z,11.57
2024-03-02T14:12:38.978Z,13.07
2024-03-02T14:15:07.553Z,14.00
2024-03-02T14:17:36.247Z,15.77
2024-03-02T14:20:06.221Z,17.87
2024-03-02T14:22:35.224Z,17.67
2024-03-02T14:25:03.210Z,15.43
2024-03-02T14:27:44.282Z,17.63
2024-03-02T14:30:19.297Z,14.67
2024-03-02T14:32:47.196Z,12.53
2024-03-02T14:35:15.162Z,12.27
2024-03-02T14:37:43.126Z,10.33
2024-03-02T14:40:12.417Z,11.40
2024-03-02T14:42:40.448Z,10.07
2024-03-02T14:45:08.685Z,14.30
2024-03-02T14:47:36.829Z,15.10
2024-03-02T14:50:08.078Z,10.37
2024-03-02T14:52:36.020Z,11.63
2024-03-02T14:55:05.544Z,11.70
2024-03-02T14:57:33.517Z,13.80
2024-03-02T15:00:01.441Z,20.17
2024-03-02T15:02:29.960Z,19.57
2024-03-02T15:04:57.987Z,16.63
2024-03-02T15:07:25.958Z,18.20
2024-03-02T15:09:53.881Z,16.63
2024-03-02T15:12:21.816Z,17.87
2024-03-02T15:14:50.046Z,15.30
2024-03-02T15:17:18.514Z,13.90
2024-03-02T15:19:46.996Z,15.37
2024-03-02T15:22:15.045Z,15.23
2024-03-02T15:24:43.077Z,20.73
2024-03-02T15:27:11.411Z,18.80
2024-03-02T15:29:39.583Z,18.83
2024-03-02T15:32:08.473Z,17.20
2024-03-02T15:34:36.621Z,18.63
2024-03-02T15:37:05.593Z,19.53
2024-03-02T15:39:34.144Z,18.50
2024-03-02T15:42:03.323Z,20.30
2024-03-02T15:44:31.565Z,19.53
2024-03-02T15:47:00.336Z,20.30
2024-03-02T15:49:29.374Z,19.70
2024-03-02T15:51:57.536Z,20.33
2024-03-02T15:54:25.796Z,28.90
2024-03-02T15:56:54.073Z,18.00
2024-03-02T15:59:22.176Z,25.10
2024-03-02T16:01:50.219Z,22.70
2024-03-02T16:04:18.296Z,23.57
2024-03-02T16:06:46.482Z,23.00
2024-03-02T16:09:14.502Z,21.73
2024-03-02T16:11:42.512Z,15.57
2024-03-02T16:14:10.580Z,19.37
2024-03-02T16:16:38.499Z,18.93
2024-03-02T16:19:14.372Z,22.00
2024-03-02T16:21:48.975Z,21.90
2024-03-02T16:24:17.119Z,25.30
2024-03-02T16:26:44.989Z,23.00
2024-03-02T16:29:12.893Z,22.73
2024-03-02T16:31:40.818Z,21.37
2024-03-02T16:34:08.832Z,20.53
2024-03-02T16:36:36.853Z,21.97
2024-03-02T16:39:05.346Z,30.97
2024-03-02T16:41:34.469Z,60.30
2024-03-02T16:44:03.899Z,66.70
2024-03-02T16:46:32.999Z,52.23
2024-03-02T16:49:01.316Z,38.30
2024-03-02T16:51:29.406Z,30.03
2024-03-02T16:53:57.434Z,37.00
2024-03-02T16:56:25.536Z,41.00
2024-03-02T16:58:53.479Z,42.97
2024-03-02T17:01:21.330Z,40.03
2024-03-02T17:03:49.380Z,31.67
2024-03-02T17:06:17.268Z,38.57
2024-03-02T17:08:45.160Z,30.63
2024-03-02T17:11:13.133Z,29.43
2024-03-02T17:13:41.026Z,32.50
2024-03-02T17:16:09.094Z,42.17
2024-03-02T17:18:37.057Z,28.47
2024-03-02T17:21:05.428Z,26.60
2024-03-02T17:23:33.351Z,26.50
2024-03-02T17:26:01.461Z,35.50
2024-03-02T17:28:31.361Z,30.93
2024-03-02T17:31:01.188Z,33.33
2024-03-02T17:33:29.145Z,36.67
2024-03-02T17:35:58.844Z,32.70
2024-03-02T17:38:26.837Z,26.80
2024-03-02T17:40:54.689Z,27.73
2024-03-02T17:43:22.600Z,28.10
2024-03-02T17:45:50.682Z,35.43
2024-03-02T17:48:18.964Z,30.87
2024-03-02T17:50:46.921Z,36.50
2024-03-02T17:53:14.865Z,34.70
2024-03-02T17:55:42.815Z,46.63
2024-03-02T17:58:10.908Z,39.33
2024-03-02T18:00:39.110Z,42.30
2024-03-02T18:03:07.309Z,37.30
2024-03-02T18:05:36.864Z,35.43
2024-03-02T18:08:05.251Z,53.30
2024-03-02T18:10:34.408Z,41.37
2024-03-02T18:13:02.098Z,50.40
2024-03-02T18:15:29.807Z,48.70
2024-03-02T18:17:57.429Z,36.83
2024-03-02T18:20:25.347Z,46.40
2024-03-02T18:22:55.480Z,35.93
2024-03-02T18:25:23.379Z,43.83
2024-03-02T18:27:51.368Z,37.77
2024-03-02T18:30:19.665Z,33.07
2024-03-02T18:32:47.598Z,31.03
2024-03-02T18:35:15.500Z,30.73
2024-03-02T18:37:46.410Z,27.43
2024-03-02T18:40:15.821Z,26.97
2024-03-02T18:42:43.628Z,27.30
2024-03-02T18:45:11.374Z,28.80
2024-03-02T18:47:40.255Z,26.87
2024-03-02T18:50:11.472Z,19.03
2024-03-02T18:52:39.633Z,18.97
2024-03-02T18:55:08.795Z,24.70
2024-03-02T18:57:37.095Z,28.10
2024-03-02T19:00:13.676Z,22.53
2024-03-02T19:02:43.157Z,18.63
2024-03-02T19:05:11.826Z,22.30
2024-03-02T19:07:39.899Z,19.53
2024-03-02T19:10:10.120Z,18.00
2024-03-02T19:12:42.610Z,17.20
2024-03-02T19:15:13.116Z,14.37
2024-03-02T19:17:41.160Z,16.13
2024-03-02T19:20:12.604Z,15.37
2024-03-02T19:22:41.287Z,14.23
2024-03-02T19:25:13.046Z,12.77
2024-03-02T19:27:40.922Z,15.03
2024-03-02T19:30:09.486Z,15.90
2024-03-02T19:32:37.126Z,16.87
2024-03-02T19:35:05.594Z,19.80
2024-03-02T19:37:33.235Z,17.30
2024-03-02T19:40:01.137Z,21.00
2024-03-02T19:42:29.439Z,23.57
2024-03-02T19:44:57.406Z,17.27
2024-03-02T19:47:25.334Z,14.30
2024-03-02T19:49:53.338Z,9.60
2024-03-02T19:52:22.022Z,13.10
2024-03-02T19:54:50.836Z,10.40
2024-03-02T19:57:18.691Z,9.97
2024-03-02T19:59:47.221Z,11.93
2024-03-02T20:02:16.764Z,11.87
2024-03-02T20:04:46.725Z,12.83
2024-03-02T20:07:14.425Z,10.07
2024-03-02T20:09:42.119Z,9.37
2024-03-02T20:12:09.895Z,8.03
2024-03-02T20:14:37.762Z,6.90
2024-03-02T20:17:05.750Z,9.07
2024-03-02T20:19:33.356Z,9.90
2024-03-02T20:22:00.935Z,9.00
2024-03-02T20:24:28.568Z,7.83
2024-03-02T20:26:56.261Z,8.30
2024-03-02T20:29:23.937Z,12.00
2024-03-02T20:31:51.497Z,7.63
2024-03-02T20:34:19.669Z,9.80
2024-03-02T20:36:47.955Z,8.97
2024-03-02T20:39:15.922Z,8.43
2024-03-02T20:41:43.572Z,9.10
2024-03-02T20:44:15.529Z,7.97
2024-03-02T20:46:43.123Z,9.03
2024-03-02T20:49:11.427Z,10.80
2024-03-02T20:51:39.245Z,11.27
2024-03-02T20:54:07.183Z,9.97
2024-03-02T20:56:41.987Z,10.33
2024-03-02T20:59:10.053Z,14.93
2024-03-02T21:01:38.611Z,12.40
2024-03-02T21:04:06.356Z,10.90
2024-03-02T21:06:33.976Z,10.03
2024-03-02T21:09:01.609Z,10.73
2024-03-02T21:11:29.312Z,10.63
2024-03-02T21:13:57.534Z,10.10
2024-03-02T21:16:25.303Z,11.07
2024-03-02T21:18:55.108Z,10.77
2024-03-02T21:21:22.901Z,9.87
2024-03-02T21:23:50.700Z,10.60
2024-03-02T21:26:18.208Z,9.60
2024-03-02T21:28:45.766Z,10.13
2024-03-02T21:31:17.790Z,11.23
2024-03-02T21:33:45.870Z,14.07
2024-03-02T21:36:13.377Z,8.97
2024-03-02T21:38:40.923Z,10.00
2024-03-02T21:41:08.478Z,10.10
2024-03-02T21:43:36.998Z,9.60
2024-03-02T21:46:05.134Z,10.60
2024-03-02T21:48:33.171Z,10.73
2024-03-02T21:51:02.728Z,11.63
2024-03-02T21:53:30.697Z,10.60
2024-03-02T21:55:58.579Z,11.70
2024-03-02T21:58:26.563Z,9.50
2024-03-02T22:00:54.509Z,10.27
2024-03-02T22:03:22.795Z,8.97
2024-03-02T22:05:50.710Z,10.37
2024-03-02T22:08:18.665Z,8.47
2024-03-02T22:10:46.690Z,9.57
2024-03-02T22:13:14.718Z,8.90
2024-03-02T22:15:43.002Z,8.37
2024-03-02T22:18:11.487Z,10.37
2024-03-02T22:20:39.449Z,9.00
2024-03-02T22:23:07.316Z,8.37
2024-03-02T22:25:35.230Z,7.53
2024-03-02T22:28:03.257Z,8.20
2024-03-02T22:30:31.198Z,10.27
2024-03-02T22:32:59.638Z,8.10
2024-03-02T22:35:27.864Z,8.70
2024-03-02T22:37:55.775Z,11.13
2024-03-02T22:40:24.612Z,10.53
2024-03-02T22:42:52.724Z,12.07
2024-03-02T22:45:20.739Z,8.80
2024-03-02T22:47:48.961Z,11.73
2024-03-02T22:50:16.985Z,12.40
2024-03-02T22:52:44.918Z,10.03
2024-03-02T22:55:13.250Z,14.03
2024-03-02T22:57:41.006Z,10.90
2024-03-02T23:00:23.079Z,11.80
2024-03-02T23:02:51.155Z,12.03
2024-03-02T23:05:19.180Z,10.27
2024-03-02T23:07:47.171Z,11.70
2024-03-02T23:10:15.039Z,11.87
2024-03-02T23:12:44.144Z,13.20
2024-03-02T23:15:11.959Z,10.20
2024-03-02T23:17:39.841Z,12.23
2024-03-02T23:20:09.107Z,13.17
2024-03-02T23:22:37.054Z,11.50
2024-03-02T23:25:05.376Z,10.57
2024-03-02T23:27:32.994Z,12.00
2024-03-02T23:30:00.522Z,10.20
2024-03-02T23:32:28.431Z,13.90
2024-03-02T23:34:56.077Z,13.10
2024-03-02T23:37:23.697Z,10.73
2024-03-02T23:40:06.498Z,9.57
2024-03-02T23:42:34.118Z,11.07
2024-03-02T23:45:03.088Z,10.33
2024-03-02T23:47:30.792Z,12.13
2024-03-02T23:49:58.296Z,13.77
2024-03-02T23:52:25.883Z,13.90
2024-03-02T23:54:53.530Z,11.53
2024-03-02T23:57:21.602Z,12.70
2024-03-02T23:59:49.868Z,10.60
